Time;durP1;ratioP1;P1;durP2;ratioP2;P2;SDS_P1;SDS_P2;PMS_P1;PMS_P2;Temp;Humidity;BMP_temperature;BMP_pressure;BME280_temperature;BME280_humidity;BME280_pressure;Samples;Min_cycle;Max_cycle;Signal;HPM_P1;HPM_P2
2021/06/28 00:01:10;;;;;;;1.77;1.10;;;;;;;26.81;44.21;101150.53;5030542;28;20042;-62
2021/06/28 00:03:38;;;;;;;2.75;1.25;;;;;;;26.77;44.10;101146.53;5030221;28;20049;-62
2021/06/28 00:06:06;;;;;;;6.40;1.33;;;;;;;26.78;44.23;101158.13;5030133;28;20095;-61
2021/06/28 00:08:33;;;;;;;2.90;0.98;;;;;;;26.73;44.08;101147.94;5030083;28;20084;-62
2021/06/28 00:10:59;;;;;;;3.97;0.98;;;;;;;26.71;44.36;101150.75;5030386;28;20124;-62
2021/06/28 00:13:26;;;;;;;1.95;1.30;;;;;;;26.70;44.56;101153.63;5029452;28;20080;-63
2021/06/28 00:15:53;;;;;;;3.20;1.30;;;;;;;26.69;44.29;101152.81;5030278;28;20096;-62
2021/06/28 00:18:21;;;;;;;2.58;1.42;;;;;;;26.68;44.33;101150.31;5030012;28;20061;-62
2021/06/28 00:20:48;;;;;;;4.50;1.30;;;;;;;26.65;44.42;101154.19;5030099;28;20053;-62
2021/06/28 00:23:15;;;;;;;2.63;1.40;;;;;;;26.62;44.38;101153.72;5029981;28;20049;-62
2021/06/28 00:25:42;;;;;;;3.00;1.10;;;;;;;26.56;44.56;101145.38;5029807;28;20144;-62
2021/06/28 00:28:10;;;;;;;5.18;1.40;;;;;;;26.54;44.40;101149.25;5029325;28;20490;-62
2021/06/28 00:30:42;;;;;;;3.72;1.52;;;;;;;26.51;44.60;101155.00;5029865;28;20076;-61
2021/06/28 00:33:12;;;;;;;2.83;1.08;;;;;;;26.49;44.82;101159.75;5029803;28;20093;-62
2021/06/28 00:35:40;;;;;;;3.25;1.10;;;;;;;26.45;44.62;101158.41;5029633;28;20378;-61
2021/06/28 00:38:08;;;;;;;1.60;1.23;;;;;;;26.44;44.57;101159.44;5029658;28;20049;-61
2021/06/28 00:40:36;;;;;;;2.22;1.30;;;;;;;26.41;44.67;101157.97;5028665;28;20052;-62
2021/06/28 00:43:04;;;;;;;4.18;1.10;;;;;;;26.43;44.41;101160.47;5028841;28;20229;-63
2021/06/28 00:45:34;;;;;;;2.00;1.00;;;;;;;26.39;44.69;101158.13;5033876;28;20198;-62
2021/06/28 00:48:04;;;;;;;4.18;1.20;;;;;;;26.37;44.70;101156.63;5046325;28;20481;-62
2021/06/28 00:50:33;;;;;;;2.65;1.17;;;;;;;26.34;44.66;101152.44;5052782;28;20055;-64
2021/06/28 00:53:06;;;;;;;3.88;1.10;;;;;;;26.34;45.20;101157.81;5052788;28;20060;-65
2021/06/28 00:55:34;;;;;;;1.88;1.35;;;;;;;26.33;45.05;101150.78;5052674;28;20072;-65
2021/06/28 00:58:03;;;;;;;1.63;1.10;;;;;;;26.33;45.10;101161.53;5052689;28;20421;-62
2021/06/28 01:00:30;;;;;;;2.88;1.40;;;;;;;26.32;45.10;101167.09;5042037;28;20049;-62
2021/06/28 01:02:57;;;;;;;1.63;1.13;;;;;;;26.30;45.11;101164.59;5052710;28;20456;-63
2021/06/28 01:05:28;;;;;;;6.20;1.20;;;;;;;26.30;45.16;101161.09;5052587;28;20047;-62
2021/06/28 01:07:54;;;;;;;3.53;1.17;;;;;;;26.28;45.25;101160.41;5052682;28;20044;-62
2021/06/28 01:10:21;;;;;;;6.90;1.23;;;;;;;26.26;45.19;101165.97;5052465;28;20504;-63
2021/06/28 01:12:50;;;;;;;1.73;1.10;;;;;;;26.23;45.31;101161.81;5052703;28;20045;-62
2021/06/28 01:15:18;;;;;;;2.80;1.10;;;;;;;26.22;45.43;101167.34;5045730;28;20103;-62
2021/06/28 01:17:46;;;;;;;4.45;1.42;;;;;;;26.20;45.51;101170.22;5032237;28;20061;-62
2021/06/28 01:20:16;;;;;;;5.35;1.30;;;;;;;26.19;45.37;101162.34;5032497;28;20084;-62
2021/06/28 01:22:46;;;;;;;5.95;1.88;;;;;;;26.17;45.52;101165.22;5032253;28;20497;-63
2021/06/28 01:25:19;;;;;;;2.22;1.00;;;;;;;26.15;45.62;101166.41;5032503;28;20045;-62
2021/06/28 01:27:47;;;;;;;2.50;1.33;;;;;;;26.14;45.64;101162.84;5032365;28;20405;-62
2021/06/28 01:30:18;;;;;;;6.85;1.50;;;;;;;26.12;45.73;101162.22;5032384;28;20046;-61
2021/06/28 01:32:47;;;;;;;3.30;1.20;;;;;;;26.10;45.65;101166.09;5032000;28;20049;-62
2021/06/28 01:35:15;;;;;;;2.17;1.00;;;;;;;26.07;45.73;101154.69;5032437;28;20049;-62
2021/06/28 01:37:43;;;;;;;2.70;1.65;;;;;;;26.06;45.69;101160.25;5032234;28;20049;-62
2021/06/28 01:40:11;;;;;;;1.92;1.40;;;;;;;26.04;45.84;101152.34;5032438;28;20441;-64
2021/06/28 01:42:38;;;;;;;1.35;1.23;;;;;;;26.00;45.58;101155.53;5032372;28;20418;-62
2021/06/28 01:45:09;;;;;;;2.90;1.23;;;;;;;25.96;45.56;101156.94;5032254;28;20046;-65
2021/06/28 01:47:37;;;;;;;3.83;1.10;;;;;;;25.96;45.55;101154.25;5032126;28;20128;-62
2021/06/28 01:50:06;;;;;;;1.38;1.10;;;;;;;25.94;45.50;101158.94;5041705;28;20471;-63
2021/06/28 01:52:33;;;;;;;2.50;1.20;;;;;;;25.94;45.61;101154.44;5056164;28;20455;-62
2021/06/28 01:55:03;;;;;;;4.43;1.50;;;;;;;25.93;45.53;101152.75;5036190;28;20049;-62
2021/06/28 01:57:30;;;;;;;5.05;1.35;;;;;;;25.91;45.52;101157.44;5038857;28;20136;-62
2021/06/28 01:59:56;;;;;;;3.90;1.08;;;;;;;25.88;45.63;101157.81;5056031;28;20091;-62
2021/06/28 02:02:23;;;;;;;3.10;1.15;;;;;;;25.86;45.44;101160.66;5055916;28;20084;-62
2021/06/28 02:04:50;;;;;;;3.75;1.30;;;;;;;25.84;45.67;101159.16;5056246;28;20141;-63
2021/06/28 02:07:17;;;;;;;4.93;1.50;;;;;;;25.83;45.59;101150.28;5043264;28;20406;-63
2021/06/28 02:09:44;;;;;;;2.00;1.33;;;;;;;25.83;45.82;101157.53;5035929;28;20077;-65
2021/06/28 02:12:11;;;;;;;4.13;1.38;;;;;;;25.80;45.70;101157.84;5053949;28;20493;-62
2021/06/28 02:14:37;;;;;;;3.75;1.48;;;;;;;25.79;45.77;101150.81;5055722;28;20481;-64
2021/06/28 02:17:04;;;;;;;2.90;1.25;;;;;;;25.76;45.52;101149.31;5055654;28;20051;-62
2021/06/28 02:19:31;;;;;;;5.07;1.40;;;;;;;25.73;45.61;101155.88;5055563;28;20137;-62
2021/06/28 02:21:58;;;;;;;1.50;1.13;;;;;;;25.71;45.51;101157.06;5047626;28;20128;-62
2021/06/28 02:24:24;;;;;;;3.85;1.50;;;;;;;25.70;45.64;101152.69;5035696;28;20050;-62
2021/06/28 02:26:51;;;;;;;4.43;1.42;;;;;;;25.67;45.54;101155.75;5035785;28;20468;-62
2021/06/28 02:29:18;;;;;;;2.13;1.23;;;;;;;25.64;45.55;101148.06;5035562;28;20088;-62
2021/06/28 02:31:45;;;;;;;6.75;1.10;;;;;;;25.62;45.55;101155.44;5035473;28;20081;-62
2021/06/28 02:34:12;;;;;;;3.67;1.30;;;;;;;25.58;45.41;101147.75;5044237;28;20119;-65
2021/06/28 02:36:39;;;;;;;1.77;1.10;;;;;;;25.57;45.45;101150.59;5055308;28;20078;-62
2021/06/28 02:39:07;;;;;;;2.15;1.38;;;;;;;25.57;45.41;101153.28;5037995;28;20478;-62
2021/06/28 02:41:34;;;;;;;5.20;1.45;;;;;;;25.55;45.27;101156.16;5035328;28;20060;-63
2021/06/28 02:44:01;;;;;;;2.53;1.13;;;;;;;25.54;45.23;101156.31;5035288;28;20045;-61
2021/06/28 02:46:28;;;;;;;3.35;1.20;;;;;;;25.52;45.32;101151.13;5035171;28;20089;-62
2021/06/28 02:48:55;;;;;;;4.72;1.20;;;;;;;25.50;45.39;101145.09;5035040;28;20057;-61
2021/06/28 02:51:23;;;;;;;3.40;1.30;;;;;;;25.48;45.56;101144.41;5034968;28;20128;-62
2021/06/28 02:53:49;;;;;;;2.67;1.48;;;;;;;25.49;45.43;101139.91;5043836;28;20127;-62
2021/06/28 02:56:16;;;;;;;6.22;1.70;;;;;;;25.47;45.28;101148.13;5054951;28;20087;-62
2021/06/28 02:58:47;;;;;;;3.53;1.40;;;;;;;25.47;45.40;101141.91;5054906;28;20128;-62
2021/06/28 03:01:16;;;;;;;4.70;1.20;;;;;;;25.46;45.35;101146.47;5054993;28;20128;-61
2021/06/28 03:03:43;;;;;;;2.17;1.40;;;;;;;25.42;45.63;101142.47;5039264;28;20125;-62
2021/06/28 03:06:10;;;;;;;5.03;1.40;;;;;;;25.41;45.37;101140.78;5031567;28;20053;-62
2021/06/28 03:08:37;;;;;;;2.50;1.33;;;;;;;25.38;45.72;101141.97;5031197;28;20148;-62
2021/06/28 03:11:04;;;;;;;2.70;1.25;;;;;;;25.36;45.66;101135.91;5031636;28;20049;-62
2021/06/28 03:13:32;;;;;;;2.65;1.60;;;;;;;25.36;45.81;101141.28;5031180;28;20045;-62
2021/06/28 03:16:00;;;;;;;4.15;1.30;;;;;;;25.35;45.68;101138.75;5031190;28;20081;-62
2021/06/28 03:18:27;;;;;;;5.13;1.98;;;;;;;25.32;45.75;101134.56;5030016;28;20053;-62
2021/06/28 03:20:54;;;;;;;3.13;1.50;;;;;;;25.32;45.86;101139.09;5031560;28;20120;-62
2021/06/28 03:23:21;;;;;;;7.35;1.52;;;;;;;25.30;45.95;101135.75;5031166;28;20047;-61
2021/06/28 03:25:49;;;;;;;2.88;1.67;;;;;;;25.26;46.03;101130.72;5031022;28;20042;-61
2021/06/28 03:28:16;;;;;;;5.05;1.55;;;;;;;25.26;45.99;101127.22;5031024;28;20554;-62
2021/06/28 03:30:43;;;;;;;4.68;1.73;;;;;;;25.23;46.33;101127.53;5031161;28;20061;-62
2021/06/28 03:33:10;;;;;;;4.65;2.30;;;;;;;25.19;46.58;101128.91;5031121;28;20048;-62
2021/06/28 03:35:37;;;;;;;5.68;2.15;;;;;;;25.15;46.94;101131.09;5031237;28;20392;-62
2021/06/28 03:38:04;;;;;;;7.50;2.25;;;;;;;25.15;47.20;101131.09;5030903;28;20045;-61
2021/06/28 03:40:32;;;;;;;8.55;2.03;;;;;;;25.13;46.91;101130.44;5030772;28;20077;-62
2021/06/28 03:43:09;;;;;;;2.08;1.40;;;;;;;25.14;46.80;101131.28;5031217;28;20049;-61
2021/06/28 03:45:37;;;;;;;4.15;1.65;;;;;;;25.14;46.75;101131.28;5030598;28;20049;-62
2021/06/28 03:48:07;;;;;;;6.55;2.00;;;;;;;25.13;46.71;101129.59;5031023;28;20468;-62
2021/06/28 03:50:34;;;;;;;5.10;1.60;;;;;;;25.14;46.46;101139.34;5030809;28;20125;-61
2021/06/28 03:53:01;;;;;;;2.78;1.58;;;;;;;25.15;46.37;101135.66;5030731;28;20177;-62
2021/06/28 03:55:28;;;;;;;2.47;1.58;;;;;;;25.14;46.44;101134.81;5030507;28;20077;-62
2021/06/28 03:57:55;;;;;;;4.50;1.40;;;;;;;25.15;46.34;101132.97;5030761;28;20089;-62
2021/06/28 04:00:23;;;;;;;2.42;1.55;;;;;;;25.17;46.02;101129.09;5030338;28;20053;-62
2021/06/28 04:02:52;;;;;;;4.07;2.00;;;;;;;25.18;45.96;101130.78;5030504;28;20045;-62
2021/06/28 04:05:22;;;;;;;4.00;1.80;;;;;;;25.22;46.05;101142.00;5030346;28;20141;-62
2021/06/28 04:07:50;;;;;;;5.30;2.10;;;;;;;25.22;45.85;101142.84;5030432;28;20517;-62
2021/06/28 04:10:19;;;;;;;11.02;2.85;;;;;;;25.22;46.01;101134.78;5030178;28;20124;-62
2021/06/28 04:12:48;;;;;;;7.95;2.80;;;;;;;25.23;45.82;101136.44;5030436;28;20053;-61
2021/06/28 04:15:16;;;;;;;6.78;2.38;;;;;;;25.24;45.52;101138.13;5030300;28;20080;-62
2021/06/28 04:17:46;;;;;;;8.10;1.98;;;;;;;25.25;45.66;101145.19;5030226;28;20053;-61
2021/06/28 04:20:16;;;;;;;4.80;2.05;;;;;;;25.25;45.41;101145.19;5030369;28;20091;-61
2021/06/28 04:22:44;;;;;;;6.22;1.90;;;;;;;25.26;45.48;101146.84;5030322;28;20046;-61
2021/06/28 04:25:14;;;;;;;3.90;1.80;;;;;;;25.29;45.26;101147.50;5030178;28;20052;-61
2021/06/28 04:27:41;;;;;;;3.85;1.83;;;;;;;25.31;45.30;101150.88;5030164;28;20055;-62
2021/06/28 04:30:10;;;;;;;9.50;1.70;;;;;;;25.32;45.27;101147.16;5029952;28;20095;-63
2021/06/28 04:32:39;;;;;;;5.65;1.73;;;;;;;25.36;45.31;101148.53;5029848;28;20052;-62
2021/06/28 04:35:11;;;;;;;2.10;1.50;;;;;;;25.40;45.20;101150.66;5029975;28;20092;-62
2021/06/28 04:37:38;;;;;;;5.43;1.70;;;;;;;25.41;45.14;101151.53;5029717;28;20582;-62
2021/06/28 04:40:08;;;;;;;4.10;1.60;;;;;;;25.47;44.96;101158.03;5030067;28;20080;-62
2021/06/28 04:42:34;;;;;;;5.97;1.52;;;;;;;25.47;45.14;101158.88;5029723;28;20049;-62
2021/06/28 04:45:01;;;;;;;2.78;1.25;;;;;;;25.52;44.65;101161.03;5029779;28;20053;-62
2021/06/28 04:47:28;;;;;;;4.57;1.63;;;;;;;25.53;44.90;101160.84;5029755;28;20484;-63
2021/06/28 04:49:55;;;;;;;14.15;2.45;;;;;;;25.54;44.60;101167.09;5029782;28;20077;-62
2021/06/28 04:52:21;;;;;;;4.05;1.50;;;;;;;25.56;44.64;101171.25;5029445;28;20498;-62
2021/06/28 04:54:48;;;;;;;7.95;1.92;;;;;;;25.59;44.83;101172.75;5029779;28;20041;-62
2021/06/28 04:57:16;;;;;;;5.53;1.60;;;;;;;25.63;44.78;101165.19;5029452;28;20049;-61
2021/06/28 04:59:43;;;;;;;7.93;1.55;;;;;;;25.68;44.65;101170.88;5029521;28;20124;-62
2021/06/28 05:02:10;;;;;;;5.60;2.28;;;;;;;25.69;44.59;101173.38;5040266;28;20045;-62
2021/06/28 05:04:37;;;;;;;6.53;1.95;;;;;;;25.70;44.67;101164.31;5049113;28;20049;-63
2021/06/28 05:07:04;;;;;;;7.65;1.70;;;;;;;25.73;44.74;101168.50;5049143;28;20045;-62
2021/06/28 05:09:31;;;;;;;5.32;1.60;;;;;;;25.77;44.70;101174.34;5048830;28;20067;-61
2021/06/28 05:11:58;;;;;;;5.75;1.67;;;;;;;25.82;44.40;101167.41;5049549;28;20057;-61
2021/06/28 05:14:26;;;;;;;5.50;1.42;;;;;;;25.87;44.36;101169.59;5049256;28;20128;-61
2021/06/28 05:16:53;;;;;;;5.85;1.20;;;;;;;25.94;44.44;101162.50;5048644;28;20063;-61
2021/06/28 05:19:20;;;;;;;4.68;1.20;;;;;;;26.04;44.21;101170.31;5047041;28;20536;-62
2021/06/28 05:21:46;;;;;;;7.50;1.30;;;;;;;26.11;44.25;101168.63;5032352;28;20053;-61
2021/06/28 05:24:13;;;;;;;3.90;1.15;;;;;;;26.20;44.01;101164.84;5046755;28;20041;-61
2021/06/28 05:26:40;;;;;;;1.58;0.88;;;;;;;26.41;43.69;101160.66;5048183;28;20489;-61
2021/06/28 05:29:06;;;;;;;4.07;1.13;;;;;;;26.55;44.04;101167.06;5040846;28;20057;-60
2021/06/28 05:31:33;;;;;;;5.70;1.20;;;;;;;26.64;43.87;101159.75;5028860;28;20042;-61
2021/06/28 05:34:00;;;;;;;5.47;1.10;;;;;;;26.75;44.07;101164.72;5028873;28;20084;-61
2021/06/28 05:36:26;;;;;;;4.55;1.00;;;;;;;26.82;43.99;101167.53;5028677;28;20045;-61
2021/06/28 05:38:53;;;;;;;5.93;1.13;;;;;;;26.85;43.91;101159.91;5028907;28;20045;-61
2021/06/28 05:41:20;;;;;;;5.93;1.17;;;;;;;26.92;43.56;101165.41;5028952;28;20394;-61
2021/06/28 05:43:47;;;;;;;6.63;1.20;;;;;;;26.99;43.35;101168.19;5045622;28;20060;-61
2021/06/28 05:46:14;;;;;;;6.13;1.83;;;;;;;27.05;42.96;101170.13;5048606;28;20048;-62
2021/06/28 05:48:41;;;;;;;3.03;1.25;;;;;;;27.08;42.88;101172.44;5048730;28;20056;-62
2021/06/28 05:51:08;;;;;;;4.95;1.45;;;;;;;27.05;43.04;101168.25;5048562;28;20045;-62
2021/06/28 05:53:35;;;;;;;8.00;1.83;;;;;;;26.98;43.01;101170.06;5048773;28;20067;-62
2021/06/28 05:56:04;;;;;;;4.13;1.70;;;;;;;26.94;43.22;101179.50;5048997;28;20307;-61
2021/06/28 05:58:31;;;;;;;8.20;2.50;;;;;;;26.88;43.49;101180.22;5036299;28;20045;-62
2021/06/28 06:00:59;;;;;;;8.95;2.08;;;;;;;26.86;43.32;101177.72;5028883;28;20042;-61
2021/06/28 06:03:27;;;;;;;7.68;2.30;;;;;;;26.95;43.25;101186.56;5028350;28;20068;-61
2021/06/28 06:05:54;;;;;;;7.40;1.50;;;;;;;27.08;43.12;101182.41;5028567;28;20045;-61
2021/06/28 06:08:23;;;;;;;5.68;1.70;;;;;;;27.10;43.21;101173.09;5028324;28;20041;-61
2021/06/28 06:10:54;;;;;;;10.30;1.63;;;;;;;27.18;43.25;101177.56;5028546;28;20049;-61
2021/06/28 06:13:20;;;;;;;4.90;1.77;;;;;;;27.33;43.06;101180.25;5028726;28;20448;-62
2021/06/28 06:15:48;;;;;;;9.02;2.30;;;;;;;27.40;43.16;101183.91;5028577;28;20083;-61
2021/06/28 06:18:15;;;;;;;10.98;2.20;;;;;;;27.49;43.03;101180.09;5029910;28;20107;-61
2021/06/28 06:20:43;;;;;;;10.93;2.10;;;;;;;27.53;43.17;101178.66;5047839;28;20049;-62
2021/06/28 06:23:12;;;;;;;17.27;2.35;;;;;;;27.64;42.90;101182.75;5048537;28;20064;-65
2021/06/28 06:25:43;;;;;;;12.70;1.98;;;;;;;27.76;42.78;101180.38;5048394;28;20064;-64
2021/06/28 06:28:11;;;;;;;9.63;2.03;;;;;;;27.84;42.51;101184.81;5048230;28;20053;-62
2021/06/28 06:30:37;;;;;;;7.40;1.98;;;;;;;27.87;42.45;101181.72;5048062;28;20048;-62
2021/06/28 06:33:05;;;;;;;14.68;2.40;;;;;;;27.92;42.08;101183.88;5047541;28;20045;-62
2021/06/28 06:35:33;;;;;;;8.50;1.85;;;;;;;27.96;42.40;101185.16;5034569;28;20042;-62
2021/06/28 06:38:00;;;;;;;7.68;1.50;;;;;;;28.03;42.28;101181.53;5048415;28;20049;-62
2021/06/28 06:40:28;;;;;;;5.93;1.48;;;;;;;28.18;42.05;101180.66;5049147;28;20049;-63
2021/06/28 06:42:56;;;;;;;9.95;2.20;;;;;;;28.30;41.58;101178.25;5051133;28;20083;-63
2021/06/28 06:45:24;;;;;;;9.77;1.67;;;;;;;28.40;41.38;101188.72;5051047;28;20060;-63
2021/06/28 06:47:51;;;;;;;7.68;1.95;;;;;;;28.51;41.52;101185.50;5051457;28;20052;-63
2021/06/28 06:50:18;;;;;;;6.68;1.92;;;;;;;28.60;41.10;101184.31;5051309;28;20437;-63
2021/06/28 06:52:49;;;;;;;10.57;1.73;;;;;;;28.62;41.20;101184.97;5047316;28;20087;-63
2021/06/28 06:55:17;;;;;;;8.07;1.80;;;;;;;28.74;40.91;101192.56;5050818;28;20049;-63
2021/06/28 06:57:44;;;;;;;12.07;2.08;;;;;;;28.82;40.95;101179.75;5051077;28;20056;-62
2021/06/28 07:00:18;;;;;;;7.13;1.52;;;;;;;28.87;40.69;101181.00;5046155;28;20047;-62
2021/06/28 07:02:45;;;;;;;8.38;1.40;;;;;;;28.78;40.25;101183.84;5031241;28;20096;-63
2021/06/28 07:05:13;;;;;;;4.60;1.13;;;;;;;28.83;40.13;101188.66;5048277;28;20071;-63
2021/06/28 07:07:41;;;;;;;4.15;1.15;;;;;;;28.97;39.37;101181.50;5050975;28;20103;-63
2021/06/28 07:10:13;;;;;;;3.95;1.35;;;;;;;29.08;39.08;101186.34;5051169;28;20060;-63
2021/06/28 07:12:41;;;;;;;7.20;1.13;;;;;;;29.21;38.38;101182.03;5050931;28;20041;-63
2021/06/28 07:15:11;;;;;;;11.00;1.70;;;;;;;29.27;38.26;101179.38;5050564;28;20057;-63
2021/06/28 07:17:38;;;;;;;6.53;1.10;;;;;;;29.38;38.19;101185.25;5043900;28;20084;-63
2021/06/28 07:20:06;;;;;;;9.98;1.80;;;;;;;29.42;38.20;101178.41;5030797;28;20486;-63
2021/06/28 07:22:33;;;;;;;3.13;1.45;;;;;;;29.44;38.28;101181.75;5030651;28;20115;-63
2021/06/28 07:25:00;;;;;;;4.82;1.52;;;;;;;29.48;38.48;101189.28;5030706;28;20052;-63
2021/06/28 07:27:26;;;;;;;5.18;1.88;;;;;;;29.62;38.37;101182.06;5030424;28;20054;-63
2021/06/28 07:29:53;;;;;;;6.75;1.77;;;;;;;29.76;38.72;101185.63;5030287;28;20159;-64
2021/06/28 07:32:20;;;;;;;8.02;1.80;;;;;;;29.81;38.57;101185.84;5030356;28;20479;-63
2021/06/28 07:34:48;;;;;;;7.97;1.75;;;;;;;29.94;38.34;101186.94;5049755;28;20103;-63
2021/06/28 07:37:15;;;;;;;5.28;1.70;;;;;;;30.04;38.22;101184.69;5050428;28;20049;-63
2021/06/28 07:39:41;;;;;;;11.45;1.60;;;;;;;30.19;38.37;101180.94;5050786;28;20199;-63
2021/06/28 07:42:08;;;;;;;4.72;1.58;;;;;;;30.27;38.38;101178.88;5050217;28;20102;-64
2021/06/28 07:44:35;;;;;;;2.67;1.40;;;;;;;30.32;38.47;101180.94;5050334;28;20041;-63
2021/06/28 07:47:02;;;;;;;6.97;1.63;;;;;;;30.41;38.49;101178.84;5050176;28;20056;-63
2021/06/28 07:49:29;;;;;;;6.82;2.33;;;;;;;30.45;38.69;101169.28;5049720;28;20045;-63
2021/06/28 07:51:56;;;;;;;5.07;1.90;;;;;;;30.51;38.25;101175.78;5049943;28;20045;-63
2021/06/28 07:54:24;;;;;;;4.13;1.45;;;;;;;30.57;38.44;101170.34;5049890;28;20041;-64
2021/06/28 07:56:51;;;;;;;4.38;1.65;;;;;;;30.68;38.00;101166.16;5050004;28;20053;-63
2021/06/28 07:59:18;;;;;;;4.40;1.30;;;;;;;30.78;37.88;101160.31;5046621;28;20506;-63
2021/06/28 08:01:45;;;;;;;5.57;1.55;;;;;;;30.81;37.89;101161.78;5029659;28;20054;-64
2021/06/28 08:04:11;;;;;;;3.97;1.65;;;;;;;30.89;38.09;101164.25;5030118;28;20532;-63
2021/06/28 08:06:38;;;;;;;3.88;1.40;;;;;;;30.99;37.60;101169.25;5030192;28;20429;-63
2021/06/28 08:09:05;;;;;;;3.28;1.45;;;;;;;31.03;37.95;101168.63;5029638;28;20057;-63
2021/06/28 08:11:32;;;;;;;2.33;1.30;;;;;;;31.11;37.55;101167.56;5037188;28;20049;-63
2021/06/28 08:14:00;;;;;;;4.03;1.35;;;;;;;31.17;36.68;101165.88;5049697;28;20045;-64
2021/06/28 08:16:28;;;;;;;4.03;1.60;;;;;;;31.33;36.40;101168.09;5049768;28;20045;-63
2021/06/28 08:18:56;;;;;;;2.15;1.20;;;;;;;31.37;36.11;101172.03;5047551;28;20694;-64
2021/06/28 08:21:33;;;;;;;2.92;1.30;;;;;;;31.40;35.60;101170.78;5049741;28;20114;-64
2021/06/28 08:24:00;;;;;;;3.15;1.15;;;;;;;31.49;35.23;101168.66;5049467;28;20131;-63
2021/06/28 08:26:27;;;;;;;3.40;1.67;;;;;;;31.58;34.56;101170.09;5049167;28;20053;-63
2021/06/28 08:28:54;;;;;;;2.72;1.27;;;;;;;31.72;34.48;101160.84;5049426;28;20045;-64
2021/06/28 08:31:21;;;;;;;1.95;1.00;;;;;;;31.88;34.71;101164.94;5049174;28;20414;-63
2021/06/28 08:34:07;;;;;;;4.28;1.77;;;;;;;32.00;34.08;101156.06;5049549;28;20087;-63
2021/06/28 08:36:34;;;;;;;6.82;1.90;;;;;;;32.07;34.34;101156.84;5038823;28;20048;-64
2021/06/28 08:39:03;;;;;;;5.13;1.63;;;;;;;32.12;34.62;101156.19;5029118;28;20080;-63
2021/06/28 08:41:31;;;;;;;6.25;1.55;;;;;;;32.16;34.51;101146.56;5028967;28;20500;-63
2021/06/28 08:43:58;;;;;;;3.85;1.40;;;;;;;32.13;34.42;101153.25;5029231;28;20048;-64
2021/06/28 08:46:25;;;;;;;2.47;1.10;;;;;;;32.30;33.63;101155.44;5029165;28;20053;-64
2021/06/28 08:48:52;;;;;;;5.15;1.30;;;;;;;32.42;33.40;101150.97;5028817;28;20081;-64
2021/06/28 08:51:20;;;;;;;3.50;1.20;;;;;;;32.40;33.68;101155.78;5029029;28;20049;-64
2021/06/28 08:54:04;;;;;;;2.72;1.23;;;;;;;32.49;33.70;101153.63;5029386;28;20413;-70
2021/06/28 08:56:30;;;;;;;3.88;0.90;;;;;;;32.67;33.62;101153.66;5029090;28;20046;-64
2021/06/28 08:58:59;;;;;;;5.55;1.30;;;;;;;32.81;33.16;101157.09;5028757;28;20045;-63
2021/06/28 09:01:26;;;;;;;2.85;1.20;;;;;;;32.67;33.27;101167.25;5028023;28;20099;-64
2021/06/28 09:03:53;;;;;;;5.57;1.40;;;;;;;32.73;33.33;101173.66;5029230;28;20053;-64
2021/06/28 09:06:24;;;;;;;2.58;1.48;;;;;;;32.82;33.00;101175.03;5028964;28;20387;-64
2021/06/28 09:09:07;;;;;;;3.97;1.20;;;;;;;32.93;32.31;101165.31;5028611;28;20573;-64
2021/06/28 09:11:36;;;;;;;3.03;1.20;;;;;;;33.04;32.38;101167.28;5028436;28;20104;-64
2021/06/28 09:14:06;;;;;;;4.43;1.30;;;;;;;33.15;31.60;101168.41;5028870;28;20053;-64
2021/06/28 09:16:34;;;;;;;2.88;1.00;;;;;;;33.15;31.37;101171.13;5028537;28;20049;-64
2021/06/28 09:19:09;;;;;;;2.33;1.02;;;;;;;33.21;30.96;101162.06;5027379;28;20050;-63
2021/06/28 09:21:38;;;;;;;2.05;1.08;;;;;;;33.25;30.70;101167.88;5028370;28;20049;-64
2021/06/28 09:24:30;;;;;;;3.50;1.10;;;;;;;33.35;30.61;101176.34;5028643;28;20045;-70
2021/06/28 09:27:09;;;;;;;6.32;1.10;;;;;;;33.43;29.64;101171.66;5027714;28;20049;-64
2021/06/28 09:29:41;;;;;;;3.20;1.20;;;;;;;33.48;29.94;101166.38;5028629;28;20552;-64
2021/06/28 09:32:12;;;;;;;5.63;1.30;;;;;;;33.53;29.65;101177.38;5027362;28;20049;-64
2021/06/28 09:34:41;;;;;;;2.35;1.10;;;;;;;33.69;29.96;101168.56;5028459;28;20053;-64
2021/06/28 09:37:25;;;;;;;4.60;1.25;;;;;;;33.79;30.15;101172.63;5037338;28;20566;-64
2021/06/28 09:39:57;;;;;;;3.63;1.25;;;;;;;33.80;29.89;101168.84;5045989;28;20044;-64
2021/06/28 09:42:26;;;;;;;3.67;1.27;;;;;;;34.00;30.13;101171.28;5047453;28;20095;-64
2021/06/28 09:44:56;;;;;;;2.55;1.17;;;;;;;34.08;30.16;101172.84;5047942;28;20041;-64
2021/06/28 09:47:25;;;;;;;4.13;1.13;;;;;;;34.20;29.99;101162.81;5031705;28;20414;-64
2021/06/28 09:49:58;;;;;;;2.00;1.38;;;;;;;34.36;29.52;101164.06;5028484;28;20391;-64
2021/06/28 09:52:55;;;;;;;5.03;1.20;;;;;;;34.38;29.63;101163.81;5027745;28;20045;-64
2021/06/28 09:55:42;;;;;;;5.13;1.20;;;;;;;34.53;29.48;101157.91;5027732;28;20046;-64
2021/06/28 09:58:24;;;;;;;1.77;1.40;;;;;;;34.59;29.57;101149.59;5028008;28;20053;-64
2021/06/28 10:00:55;;;;;;;4.22;1.20;;;;;;;34.61;29.83;101158.34;5027848;28;20045;-64
2021/06/28 10:03:34;;;;;;;5.07;1.38;;;;;;;34.74;30.12;101151.84;5028050;28;20056;-64
2021/06/28 10:06:26;;;;;;;4.25;1.40;;;;;;;34.59;30.19;101144.13;5028363;28;20084;-64
2021/06/28 10:09:10;;;;;;;4.80;1.48;;;;;;;34.76;29.89;101136.03;5028164;28;20387;-64
2021/06/28 10:11:45;;;;;;;2.55;1.00;;;;;;;34.74;29.59;101146.38;5029560;28;20041;-64
2021/06/28 10:14:12;;;;;;;4.47;1.27;;;;;;;34.77;29.68;101140.44;5032110;28;20045;-64
2021/06/28 10:16:40;;;;;;;2.88;1.52;;;;;;;34.90;28.89;101133.09;5031807;28;20069;-64
2021/06/28 10:19:10;;;;;;;5.10;1.20;;;;;;;34.93;28.73;101129.88;5031882;28;20081;-64
2021/06/28 10:21:37;;;;;;;5.63;1.38;;;;;;;35.04;28.96;101131.75;5031449;28;20515;-64
2021/06/28 10:24:07;;;;;;;3.72;1.40;;;;;;;35.08;28.90;101118.47;5032153;28;20054;-64
2021/06/28 10:26:34;;;;;;;3.28;1.58;;;;;;;35.06;28.70;101110.53;5031875;28;20057;-64
2021/06/28 10:29:02;;;;;;;5.53;1.65;;;;;;;35.21;29.00;101117.34;5031481;28;20055;-64
2021/06/28 10:31:29;;;;;;;4.32;1.08;;;;;;;35.05;29.04;101119.78;5031437;28;20056;-64
2021/06/28 10:33:59;;;;;;;4.63;1.48;;;;;;;35.09;28.90;101115.47;5031951;28;20048;-64
2021/06/28 10:36:37;;;;;;;3.58;1.17;;;;;;;35.19;28.43;101117.59;5031783;28;20064;-64
2021/06/28 10:39:10;;;;;;;3.55;1.50;;;;;;;35.33;28.54;101115.41;5031425;28;20060;-64
2021/06/28 10:41:42;;;;;;;2.08;1.35;;;;;;;35.38;28.78;101110.06;5031334;28;20096;-64
2021/06/28 10:44:11;;;;;;;2.38;1.30;;;;;;;35.45;28.55;101118.09;5031777;28;20049;-64
2021/06/28 10:46:39;;;;;;;2.92;1.40;;;;;;;35.43;28.66;101109.34;5031370;28;20494;-64
2021/06/28 10:49:07;;;;;;;3.67;1.20;;;;;;;35.48;28.88;101101.25;5031205;28;20053;-64
2021/06/28 10:51:51;;;;;;;2.72;1.27;;;;;;;35.59;28.83;101092.16;5030979;28;20095;-64
2021/06/28 10:54:30;;;;;;;2.88;1.80;;;;;;;35.75;28.59;101095.97;5031424;28;20045;-64
2021/06/28 10:56:58;;;;;;;2.70;1.25;;;;;;;35.83;28.36;101091.19;5029738;28;20506;-64
2021/06/28 10:59:28;;;;;;;5.78;1.42;;;;;;;35.90;28.37;101092.69;5031176;28;20045;-64
2021/06/28 11:01:55;;;;;;;1.52;1.20;;;;;;;35.92;28.60;101095.19;5035309;28;20493;-65
2021/06/28 11:04:33;;;;;;;3.08;1.35;;;;;;;35.95;28.40;101087.31;5050295;28;20041;-64
2021/06/28 11:07:00;;;;;;;4.40;1.30;;;;;;;35.95;28.28;101092.78;5050832;28;20045;-66
2021/06/28 11:09:42;;;;;;;2.92;1.40;;;;;;;35.99;28.09;101087.66;5051084;28;20051;-65
2021/06/28 11:12:18;;;;;;;4.10;1.60;;;;;;;36.05;27.99;101083.94;5050811;28;20049;-64
2021/06/28 11:14:46;;;;;;;6.63;1.83;;;;;;;36.18;28.13;101079.19;5050768;28;20042;-64
2021/06/28 11:17:37;;;;;;;3.65;1.30;;;;;;;36.17;27.79;101075.63;5040536;28;20456;-64
2021/06/28 11:20:06;;;;;;;4.43;1.50;;;;;;;36.08;28.24;101080.69;5050735;28;20057;-67
2021/06/28 11:22:35;;;;;;;2.28;1.42;;;;;;;36.03;27.76;101072.41;5050291;28;20071;-64
2021/06/28 11:25:13;;;;;;;3.80;1.63;;;;;;;36.09;27.88;101073.34;5046192;28;20068;-64
2021/06/28 11:27:59;;;;;;;2.78;1.70;;;;;;;36.23;27.91;101063.69;5048266;28;20489;-64
2021/06/28 11:30:29;;;;;;;4.43;1.60;;;;;;;36.32;27.77;101066.00;5050209;28;20053;-64
2021/06/28 11:33:04;;;;;;;6.85;1.70;;;;;;;36.07;28.03;101059.09;5040766;28;20049;-65